Time;durP1;ratioP1;P1;durP2;ratioP2;P2;SDS_P1;SDS_P2;PMS_P1;PMS_P2;Temp;Humidity;BMP_temperature;BMP_pressure;BME280_temperature;BME280_humidity;BME280_pressure;Samples;Min_cycle;Max_cycle;Signal;HPM_P1;HPM_P2
2022/04/12 00:00:12;;;;;;;1152.47;999.90;;;;;;;6.93;52.50;101430.44;683921;28;46534;-67
2022/04/12 00:00:33;;;;;;;1151.20;999.90;;;;;;;6.92;52.38;101426.94;684240;28;46342;-65
2022/04/12 00:00:55;;;;;;;1152.15;999.90;;;;;;;6.91;52.22;101430.63;685013;28;45001;-67
2022/04/12 00:01:16;;;;;;;1147.55;999.90;;;;;;;6.90;52.08;101428.06;684578;28;44392;-68
2022/04/12 00:01:37;;;;;;;1148.05;999.90;;;;;;;6.84;52.23;101422.22;684317;28;22398;-66
2022/04/12 00:01:58;;;;;;;1147.97;999.90;;;;;;;6.85;52.28;101431.16;682367;28;22347;-67
2022/04/12 00:02:20;;;;;;;1151.80;999.90;;;;;;;6.83;52.38;101430.41;682497;28;23557;-67
2022/04/12 00:02:41;;;;;;;1148.40;999.90;;;;;;;6.79;52.49;101432.53;681559;28;46719;-67
2022/04/12 00:03:03;;;;;;;1140.43;999.90;;;;;;;6.78;52.23;101428.16;679891;28;21791;-67
2022/04/12 00:03:25;;;;;;;1154.10;999.90;;;;;;;6.77;52.12;101430.97;679320;29;44403;-67
2022/04/12 00:03:46;;;;;;;1149.85;999.90;;;;;;;6.74;52.13;101425.88;679382;28;44263;-67
2022/04/12 00:04:07;;;;;;;1145.60;999.90;;;;;;;6.77;51.96;101431.84;682138;28;22181;-66
2022/04/12 00:04:28;;;;;;;1146.05;999.90;;;;;;;6.76;51.99;101430.13;682356;28;22165;-67
2022/04/12 00:04:49;;;;;;;1150.82;999.90;;;;;;;6.79;52.04;101432.53;682277;28;23496;-66
2022/04/12 00:05:12;;;;;;;1149.75;999.90;;;;;;;6.79;51.95;101431.69;682685;28;22430;-67
2022/04/12 00:05:33;;;;;;;1148.30;999.90;;;;;;;6.79;51.91;101431.69;681138;28;70280;-67
2022/04/12 00:05:54;;;;;;;1146.45;999.90;;;;;;;6.79;52.10;101429.00;685564;28;22901;-67
2022/04/12 00:06:15;;;;;;;1147.35;999.90;;;;;;;6.80;52.00;101433.38;686368;28;5563;-66
2022/04/12 00:06:37;;;;;;;1148.35;999.90;;;;;;;6.77;52.01;101429.16;684636;28;23500;-67
2022/04/12 00:06:59;;;;;;;1149.72;999.90;;;;;;;6.77;52.30;101433.66;683735;28;69372;-66
2022/04/12 00:07:20;;;;;;;1144.82;999.90;;;;;;;6.75;52.27;101436.47;684831;28;24653;-67
2022/04/12 00:07:43;;;;;;;1145.95;999.90;;;;;;;6.74;52.18;101434.78;684932;28;20498;-66
2022/04/12 00:08:06;;;;;;;1146.10;999.90;;;;;;;6.74;52.29;101433.91;684174;28;69432;-67
2022/04/12 00:08:27;;;;;;;1153.05;999.90;;;;;;;6.68;52.50;101428.13;684160;28;45969;-66
2022/04/12 00:08:49;;;;;;;1151.28;999.90;;;;;;;6.69;52.44;101431.63;685374;28;22705;-66
2022/04/12 00:09:11;;;;;;;1137.22;999.90;;;;;;;6.67;52.33;101431.78;684781;28;46433;-66
2022/04/12 00:09:33;;;;;;;1151.03;999.90;;;;;;;6.65;52.47;101431.06;684028;28;46332;-67
2022/04/12 00:09:54;;;;;;;1156.75;999.90;;;;;;;6.66;52.58;101437.28;684264;28;44357;-67
2022/04/12 00:10:16;;;;;;;1158.90;999.90;;;;;;;6.65;52.60;101432.91;685404;28;23477;-66
2022/04/12 00:10:37;;;;;;;1154.63;999.90;;;;;;;6.64;52.78;101437.41;683297;28;46358;-66
2022/04/12 00:10:59;;;;;;;1155.72;999.90;;;;;;;6.64;52.58;101431.19;684329;28;22408;-67
2022/04/12 00:11:20;;;;;;;1153.63;999.90;;;;;;;6.62;52.67;101428.66;684312;28;44066;-67
2022/04/12 00:11:45;;;;;;;1149.20;999.90;;;;;;;6.62;52.81;101430.50;684288;28;38086;-66
2022/04/12 00:12:08;;;;;;;1149.90;999.90;;;;;;;6.61;52.93;101436.84;684997;28;22383;-67
2022/04/12 00:12:29;;;;;;;1153.28;999.90;;;;;;;6.59;52.99;101433.44;683507;28;69083;-67
2022/04/12 00:12:52;;;;;;;1151.30;999.90;;;;;;;6.62;52.86;101433.19;686306;28;23841;-66
2022/04/12 00:13:13;;;;;;;1151.32;999.90;;;;;;;6.62;52.85;101435.84;684063;28;68430;-67
2022/04/12 00:13:34;;;;;;;1153.00;999.90;;;;;;;6.62;53.09;101438.53;682517;28;22168;-67
2022/04/12 00:13:55;;;;;;;1152.97;999.90;;;;;;;6.61;53.15;101434.16;680272;29;20000;-66
2022/04/12 00:14:17;;;;;;;1147.20;999.90;;;;;;;6.63;53.07;101440.22;679931;29;22240;-67
2022/04/12 00:14:38;;;;;;;1146.65;999.90;;;;;;;6.63;53.04;101437.53;678937;29;46319;-67
2022/04/12 00:14:59;;;;;;;1153.82;999.90;;;;;;;6.63;53.01;101442.91;679950;29;23774;-69
2022/04/12 00:15:21;;;;;;;1151.37;999.90;;;;;;;6.64;53.19;101436.56;680504;28;24439;-66
2022/04/12 00:15:43;;;;;;;1143.38;999.90;;;;;;;6.65;53.24;101440.97;682189;28;46312;-67
2022/04/12 00:16:04;;;;;;;1151.72;999.90;;;;;;;6.63;53.14;101429.50;681562;28;44900;-66
2022/04/12 00:16:25;;;;;;;1155.82;999.90;;;;;;;6.63;53.06;101437.53;682933;28;22328;-66
2022/04/12 00:19:02;;;;;;;1158.22;999.90;;;;;;;6.64;53.19;101434.72;682178;28;23642;-66
2022/04/12 00:19:02;;;;;;;1162.40;999.90;;;;;;;6.73;53.08;101434.91;680925;28;137694;-67
2022/04/12 00:19:24;;;;;;;1161.80;999.90;;;;;;;6.74;53.18;101439.28;681010;28;137016;-67
2022/04/12 00:19:46;;;;;;;1155.32;999.90;;;;;;;6.73;53.03;101441.13;683892;28;44393;-67
2022/04/12 00:20:08;;;;;;;1150.07;999.90;;;;;;;6.74;53.10;101436.59;684878;28;44450;-67
2022/04/12 00:20:29;;;;;;;1158.40;999.90;;;;;;;6.73;52.86;101443.81;685173;28;46411;-67
2022/04/12 00:20:53;;;;;;;1156.90;999.90;;;;;;;6.70;53.05;101435.19;684754;28;24332;-67
2022/04/12 00:21:15;;;;;;;1140.50;999.90;;;;;;;6.71;53.02;101437.75;683448;28;92155;-67
2022/04/12 00:21:36;;;;;;;1151.80;999.90;;;;;;;6.70;53.11;101438.72;683668;28;45194;-67
2022/04/12 00:21:58;;;;;;;1155.05;999.90;;;;;;;6.67;53.12;101438.97;685982;28;21527;-67
2022/04/12 00:22:19;;;;;;;1149.88;999.90;;;;;;;6.65;53.03;101433.75;683794;28;69388;-67
2022/04/12 00:22:43;;;;;;;1161.95;999.90;;;;;;;6.67;53.14;101433.63;685371;28;22369;-67
2022/04/12 00:23:04;;;;;;;1156.65;999.90;;;;;;;6.69;52.99;101437.00;683959;28;69354;-67
2022/04/12 00:23:25;;;;;;;1149.45;999.90;;;;;;;6.67;53.27;101436.31;684353;28;45058;-66
2022/04/12 00:23:46;;;;;;;1150.63;999.90;;;;;;;6.61;53.26;101426.94;685246;28;21524;-66
2022/04/12 00:24:10;;;;;;;1150.57;999.90;;;;;;;6.63;53.15;101430.34;685629;28;22393;-66
2022/04/12 00:24:31;;;;;;;1155.85;999.90;;;;;;;6.61;53.25;101435.00;684044;28;70250;-66
2022/04/12 00:24:53;;;;;;;1150.85;999.90;;;;;;;6.62;53.16;101435.84;680151;28;23460;-67
2022/04/12 00:25:14;;;;;;;1147.07;999.90;;;;;;;6.60;53.35;101433.31;678761;29;69411;-66
2022/04/12 00:25:36;;;;;;;1152.13;999.90;;;;;;;6.56;53.26;101431.03;680020;28;22426;-66
2022/04/12 00:25:59;;;;;;;1148.55;999.90;;;;;;;6.58;53.42;101431.72;680459;29;14987;-67
2022/04/12 00:26:21;;;;;;;1152.00;999.90;;;;;;;6.54;53.41;101422.28;679937;29;22449;-66
2022/04/12 00:26:45;;;;;;;1150.72;999.90;;;;;;;6.52;53.62;101427.78;682487;28;4341;-66
2022/04/12 00:27:06;;;;;;;1147.57;999.90;;;;;;;6.55;53.61;101440.91;684738;28;44384;-66
2022/04/12 00:27:28;;;;;;;1155.82;999.90;;;;;;;6.53;53.56;101432.13;683456;28;22385;-68
2022/04/12 00:27:50;;;;;;;1155.40;999.90;;;;;;;6.52;53.51;101430.44;682651;28;22415;-68
2022/04/12 00:28:16;;;;;;;1148.97;999.90;;;;;;;6.49;53.59;101431.56;682121;28;39105;-67
2022/04/12 00:28:37;;;;;;;1156.07;999.90;;;;;;;6.49;53.67;101434.25;680727;28;69518;-67
2022/04/12 00:28:58;;;;;;;1156.10;999.90;;;;;;;6.51;53.50;101434.13;682258;28;23265;-68
2022/04/12 00:29:20;;;;;;;1154.40;999.90;;;;;;;6.54;53.85;101433.00;680814;28;23462;-68
2022/04/12 00:29:42;;;;;;;1146.88;999.90;;;;;;;6.52;53.76;101434.94;681040;28;45255;-67
2022/04/12 00:30:04;;;;;;;1153.20;999.90;;;;;;;6.52;53.79;101432.25;680738;28;69352;-67
2022/04/12 00:30:27;;;;;;;1148.53;999.90;;;;;;;6.53;53.66;101432.13;683298;28;44350;-67
2022/04/12 00:30:48;;;;;;;1152.55;999.90;;;;;;;6.49;53.85;101431.56;681256;28;46403;-67
2022/04/12 00:31:10;;;;;;;1152.00;999.90;;;;;;;6.51;53.84;101442.16;682998;28;43589;-67
2022/04/12 00:31:31;;;;;;;1149.32;999.90;;;;;;;6.51;53.91;101435.94;685014;28;46657;-67
2022/04/12 00:31:52;;;;;;;1151.38;999.90;;;;;;;6.50;53.79;101435.09;684687;28;22372;-68
2022/04/12 00:32:13;;;;;;;1155.88;999.90;;;;;;;6.47;53.86;101440.72;685552;28;22419;-67
2022/04/12 00:32:36;;;;;;;1157.97;999.90;;;;;;;6.48;53.85;101435.22;685477;28;24817;-68
2022/04/12 00:32:57;;;;;;;1156.63;999.90;;;;;;;6.50;53.57;101440.44;685675;28;44215;-68
2022/04/12 00:33:18;;;;;;;1159.57;999.90;;;;;;;6.49;54.32;101441.44;685436;28;23476;-68
2022/04/12 00:33:40;;;;;;;1156.30;999.90;;;;;;;6.50;54.16;101435.09;684474;28;46305;-68
2022/04/12 00:34:01;;;;;;;1160.10;999.90;;;;;;;6.50;54.18;101435.09;685038;28;45229;-68
2022/04/12 00:34:24;;;;;;;1154.90;999.90;;;;;;;6.52;54.24;101435.81;685496;28;21292;-68
2022/04/12 00:34:45;;;;;;;1148.47;999.90;;;;;;;6.52;53.98;101426.91;683506;28;67322;-68
2022/04/12 00:35:08;;;;;;;1154.75;999.90;;;;;;;6.52;54.08;101425.09;685668;28;21532;-68
2022/04/12 00:35:30;;;;;;;1157.43;999.90;;;;;;;6.53;54.13;101437.50;683744;28;69391;-68
2022/04/12 00:35:52;;;;;;;1158.82;999.90;;;;;;;6.48;54.03;101429.00;685300;28;22381;-67
2022/04/12 00:36:14;;;;;;;1143.63;999.90;;;;;;;6.51;54.11;101425.22;684061;28;70285;-67
2022/04/12 00:36:35;;;;;;;1157.70;999.90;;;;;;;6.51;54.17;101433.28;683430;28;46171;-67
2022/04/12 00:36:56;;;;;;;1157.32;999.90;;;;;;;6.51;54.27;101435.94;685351;28;22200;-68
2022/04/12 00:37:18;;;;;;;1156.78;999.90;;;;;;;6.52;54.25;101424.22;685376;28;21298;-67
2022/04/12 00:37:40;;;;;;;1161.28;999.90;;;;;;;6.51;54.18;101434.13;684936;28;22353;-67
2022/04/12 00:38:01;;;;;;;1155.00;999.90;;;;;;;6.51;54.21;101419.84;684732;28;45324;-68
2022/04/12 00:38:23;;;;;;;1150.85;999.90;;;;;;;6.51;54.27;101422.53;684208;28;44353;-68
2022/04/12 00:38:44;;;;;;;1146.72;999.90;;;;;;;6.51;54.59;101425.22;684458;28;44382;-68
2022/04/12 00:39:07;;;;;;;1153.30;999.90;;;;;;;6.51;54.58;101428.75;685377;28;23414;-68
2022/04/12 00:39:30;;;;;;;1157.28;999.90;;;;;;;6.49;54.62;101418.16;684489;28;45295;-67
2022/04/12 00:39:51;;;;;;;1154.82;999.90;;;;;;;6.53;54.39;101423.25;685673;28;15061;-68
2022/04/12 00:40:13;;;;;;;1157.70;999.90;;;;;;;6.54;54.31;101427.63;685724;28;23992;-69
2022/04/12 00:40:35;;;;;;;1150.15;999.90;;;;;;;6.53;54.21;101423.25;684538;28;46317;-69
2022/04/12 00:40:56;;;;;;;1159.45;999.90;;;;;;;6.54;54.26;101424.94;684416;28;45111;-68
2022/04/12 00:41:17;;;;;;;1159.43;999.90;;;;;;;6.53;54.37;101429.44;685684;28;23453;-68
2022/04/12 00:41:38;;;;;;;1160.53;999.90;;;;;;;6.53;54.30;101428.59;683639;28;21526;-68
2022/04/12 00:42:01;;;;;;;1167.50;999.90;;;;;;;6.52;54.01;101425.09;685660;28;23522;-68
2022/04/12 00:42:22;;;;;;;1156.45;999.90;;;;;;;6.53;54.00;101425.94;683736;28;69420;-68
2022/04/12 00:42:43;;;;;;;1150.63;999.90;;;;;;;6.53;53.88;101431.28;685117;28;23451;-68
2022/04/12 00:43:05;;;;;;;1148.22;999.90;;;;;;;6.54;53.83;101427.63;685585;28;23469;-68
2022/04/12 00:43:28;;;;;;;1162.88;999.90;;;;;;;6.52;53.86;101430.44;685603;28;45350;-68
2022/04/12 00:43:50;;;;;;;1155.30;999.90;;;;;;;6.51;53.88;101436.78;683394;28;68863;-68
2022/04/12 00:44:11;;;;;;;1155.93;999.90;;;;;;;6.52;54.13;101427.78;685557;28;22394;-69
2022/04/12 00:44:32;;;;;;;1150.03;999.90;;;;;;;6.53;53.89;101417.88;685794;28;21501;-68
2022/04/12 00:44:53;;;;;;;1148.72;999.90;;;;;;;6.54;53.92;101424.94;684626;28;23515;-68
2022/04/12 00:45:15;;;;;;;1161.63;999.90;;;;;;;6.52;53.94;101437.63;685485;28;22303;-68
2022/04/12 00:45:36;;;;;;;1159.65;999.90;;;;;;;6.52;53.81;101435.81;683692;28;46189;-69
2022/04/12 00:46:00;;;;;;;1151.70;999.90;;;;;;;6.51;53.64;101419.84;685716;28;23708;-68
2022/04/12 00:46:22;;;;;;;1168.65;999.90;;;;;;;6.49;53.78;101426.19;683498;28;92244;-67
2022/04/12 00:46:43;;;;;;;1162.05;999.90;;;;;;;6.48;53.77;101431.69;683572;28;46676;-68
2022/04/12 00:47:04;;;;;;;1167.05;999.90;;;;;;;6.44;53.58;101424.88;684775;28;21294;-67
2022/04/12 00:47:26;;;;;;;1165.53;999.90;;;;;;;6.42;53.51;101424.16;685735;28;23475;-67
2022/04/12 00:47:47;;;;;;;1154.32;999.90;;;;;;;6.42;53.67;101430.38;685193;28;22387;-68
2022/04/12 00:48:10;;;;;;;1156.83;999.90;;;;;;;6.40;53.71;101428.84;685375;28;23519;-67
2022/04/12 00:48:33;;;;;;;1152.32;999.90;;;;;;;6.37;53.69;101427.25;683160;28;91863;-67
2022/04/12 00:48:54;;;;;;;1164.03;999.90;;;;;;;6.34;54.02;101427.50;684004;28;68340;-67
2022/04/12 00:49:16;;;;;;;1155.53;999.90;;;;;;;6.31;54.07;101425.94;685136;28;23486;-68
2022/04/12 00:49:37;;;;;;;1161.00;999.90;;;;;;;6.29;54.07;101422.53;682558;28;45257;-67
2022/04/12 00:49:58;;;;;;;1159.78;999.90;;;;;;;6.28;54.25;101433.41;685627;28;21327;-68
2022/04/12 00:50:19;;;;;;;1155.65;999.90;;;;;;;6.26;54.17;101427.34;684961;28;23465;-68
2022/04/12 00:50:41;;;;;;;1166.13;999.90;;;;;;;6.25;54.18;101423.81;684856;28;22410;-67
2022/04/12 00:51:02;;;;;;;1157.90;999.90;;;;;;;6.27;54.23;101426.34;684817;28;44055;-68
2022/04/12 00:51:24;;;;;;;1166.57;999.90;;;;;;;6.25;54.23;101428.31;685383;28;22485;-67
2022/04/12 00:51:45;;;;;;;1160.38;999.90;;;;;;;6.22;54.49;101417.84;683518;28;44341;-69
2022/04/12 00:52:08;;;;;;;1154.60;999.90;;;;;;;6.25;54.42;101425.63;685504;28;22420;-68
2022/04/12 00:52:29;;;;;;;1153.85;999.90;;;;;;;6.25;54.44;101429.19;684000;28;69238;-67
2022/04/12 00:52:52;;;;;;;1156.65;999.90;;;;;;;6.25;54.56;101431.88;684883;28;23480;-67
2022/04/12 00:53:13;;;;;;;1163.82;999.90;;;;;;;6.27;54.57;101423.66;683872;28;69301;-68
2022/04/12 00:53:35;;;;;;;1158.93;999.90;;;;;;;6.29;54.55;101424.38;685483;28;21529;-67
2022/04/12 00:53:57;;;;;;;1161.15;999.90;;;;;;;6.31;54.42;101425.09;685571;28;9830;-67
2022/04/12 00:54:19;;;;;;;1163.45;999.90;;;;;;;6.32;54.57;101429.50;684724;28;44386;-68
2022/04/12 00:54:42;;;;;;;1157.85;999.90;;;;;;;6.30;54.35;101423.38;684443;28;45267;-68
2022/04/12 00:55:05;;;;;;;1157.32;999.90;;;;;;;6.32;54.42;101421.44;683215;28;92305;-68
2022/04/12 00:55:28;;;;;;;1159.82;999.90;;;;;;;6.32;54.07;101424.13;684852;28;46323;-68
2022/04/12 00:55:50;;;;;;;1160.32;999.90;;;;;;;6.31;54.03;101417.06;683544;28;67586;-68
2022/04/12 00:56:12;;;;;;;1168.28;999.90;;;;;;;6.30;54.06;101421.56;683968;28;46285;-68
2022/04/12 00:56:33;;;;;;;1165.70;999.90;;;;;;;6.30;53.99;101434.13;681417;28;55165;-68
2022/04/12 00:56:55;;;;;;;1160.35;999.90;;;;;;;6.31;53.93;101425.09;681452;28;43762;-68
2022/04/12 00:57:16;;;;;;;1160.97;999.90;;;;;;;6.28;53.82;101420.84;683135;28;23435;-68
2022/04/12 00:57:37;;;;;;;1151.88;999.90;;;;;;;6.28;53.54;101428.88;682125;28;22577;-68
2022/04/12 00:58:05;;;;;;;1167.05;999.90;;;;;;;6.25;53.33;101417.56;682080;28;45240;-68
2022/04/12 00:58:27;;;;;;;1161.40;999.90;;;;;;;6.28;53.67;101417.31;680040;28;137326;-68
2022/04/12 00:58:49;;;;;;;1165.00;999.90;;;;;;;6.28;53.87;101420.00;683926;28;46335;-68
2022/04/12 00:59:11;;;;;;;1157.57;999.90;;;;;;;6.28;53.62;101423.50;684841;28;44202;-68
2022/04/12 00:59:34;;;;;;;1163.53;999.90;;;;;;;6.29;53.62;101421.72;683919;28;46287;-68
2022/04/12 00:59:55;;;;;;;1157.60;999.90;;;;;;;6.31;53.68;101427.78;684014;28;63838;-68
2022/04/12 01:00:17;;;;;;;1165.05;999.90;;;;;;;6.31;53.35;101422.41;686169;28;22393;-67
2022/04/12 01:00:38;;;;;;;1158.13;999.90;;;;;;;6.31;53.38;101427.78;683650;28;69464;-68
2022/04/12 01:01:00;;;;;;;1154.78;999.90;;;;;;;6.31;53.24;101425.09;684655;28;44403;-68
2022/04/12 01:01:21;;;;;;;1151.70;999.90;;;;;;;6.29;53.38;101427.06;684011;28;46369;-67
2022/04/12 01:01:42;;;;;;;1149.05;999.90;;;;;;;6.27;53.21;101421.84;683939;28;23417;-67
2022/04/12 01:02:05;;;;;;;1158.53;999.90;;;;;;;6.27;53.64;101427.22;685262;28;23448;-67
2022/04/12 01:02:26;;;;;;;1160.15;999.90;;;;;;;6.24;53.58;101427.47;684376;28;45247;-67
2022/04/12 01:02:47;;;;;;;1155.00;999.90;;;;;;;6.23;53.63;101419.56;684971;28;22406;-68
2022/04/12 01:03:09;;;;;;;1159.22;999.90;;;;;;;6.22;53.70;101424.06;685601;28;23630;-68
2022/04/12 01:03:30;;;;;;;1153.20;999.90;;;;;;;6.21;53.73;101425.03;684323;28;45416;-67
2022/04/12 01:03:51;;;;;;;1152.22;999.90;;;;;;;6.19;53.75;101423.47;684272;28;45317;-67
2022/04/12 01:04:13;;;;;;;1163.95;999.90;;;;;;;6.19;53.66;101427.03;685421;28;23336;-67
2022/04/12 01:04:35;;;;;;;1161.47;999.90;;;;;;;6.20;53.77;101423.34;685755;28;5533;-68
2022/04/12 01:04:56;;;;;;;1159.72;999.90;;;;;;;6.21;53.68;101421.53;684413;28;46308;-68
2022/04/12 01:05:17;;;;;;;1163.20;999.90;;;;;;;6.23;53.54;101427.59;685338;28;22364;-68
2022/04/12 01:05:38;;;;;;;1157.57;999.90;;;;;;;6.23;53.47;101424.91;685528;28;23738;-68
2022/04/12 01:06:00;;;;;;;1156.93;999.90;;;;;;;6.25;53.46;101425.63;684985;28;45366;-68
2022/04/12 01:06:21;;;;;;;1158.85;999.90;;;;;;;6.25;53.40;101423.81;684262;28;44390;-68
2022/04/12 01:06:43;;;;;;;1162.75;999.90;;;;;;;6.25;53.27;101415.75;683917;28;23389;-67
2022/04/12 01:07:04;;;;;;;1160.88;999.90;;;;;;;6.23;53.27;101417.72;684906;28;46311;-68
2022/04/12 01:07:26;;;;;;;1167.07;999.90;;;;;;;6.21;53.40;101422.38;685375;28;22386;-68
2022/04/12 01:07:47;;;;;;;1161.75;999.90;;;;;;;6.26;53.22;101421.97;684608;28;46335;-68
2022/04/12 01:08:08;;;;;;;1153.97;999.90;;;;;;;6.27;53.39;101420.97;685518;28;22379;-68
2022/04/12 01:08:30;;;;;;;1153.80;999.90;;;;;;;6.23;53.24;101416.88;685624;28;23356;-67
2022/04/12 01:08:51;;;;;;;1153.47;999.90;;;;;;;6.28;53.56;101420.00;685797;28;22138;-67
2022/04/12 01:09:13;;;;;;;1157.85;999.90;;;;;;;6.28;53.32;101423.50;684322;28;46327;-68
2022/04/12 01:09:35;;;;;;;1164.25;999.90;;;;;;;6.28;53.44;101422.69;684993;28;19618;-68
2022/04/12 01:09:58;;;;;;;1153.70;999.90;;;;;;;6.28;53.53;101420.84;685549;28;21529;-68
2022/04/12 01:10:19;;;;;;;1157.53;999.90;;;;;;;6.29;53.17;101421.72;682823;28;92270;-68
2022/04/12 01:10:42;;;;;;;1156.30;999.90;;;;;;;6.29;53.16;101417.19;685275;28;23421;-68
2022/04/12 01:11:06;;;;;;;1156.85;999.90;;;;;;;6.29;53.02;101413.66;684986;28;43273;-67
2022/04/12 01:11:27;;;;;;;1150.97;999.90;;;;;;;6.29;53.18;101424.38;683212;28;87467;-68
2022/04/12 01:11:48;;;;;;;1153.88;999.90;;;;;;;6.28;52.90;101418.16;683976;28;22445;-68
2022/04/12 01:12:10;;;;;;;1144.05;999.90;;;;;;;6.29;52.90;101422.53;685143;28;21560;-68
2022/04/12 01:12:38;;;;;;;1157.57;999.90;;;;;;;6.29;52.92;101411.81;684951;28;34129;-68
2022/04/12 01:13:00;;;;;;;1155.07;999.90;;;;;;;6.31;53.04;101419.72;681350;28;137729;-68
2022/04/12 01:13:21;;;;;;;1155.63;999.90;;;;;;;6.30;52.87;101421.56;685949;28;1479;-68
2022/04/12 01:13:44;;;;;;;1154.72;999.90;;;;;;;6.29;52.86;101422.53;686569;28;1569;-68
2022/04/12 01:14:06;;;;;;;1155.70;999.90;;;;;;;6.26;52.85;101416.59;685685;28;23495;-68
2022/04/12 01:14:27;;;;;;;1150.57;999.90;;;;;;;6.26;52.88;101419.28;683560;28;67243;-68
2022/04/12 01:14:49;;;;;;;1150.50;999.90;;;;;;;6.29;52.76;101413.66;685899;28;22411;-68
2022/04/12 01:15:13;;;;;;;1150.03;999.90;;;;;;;6.29;52.92;101416.34;686986;28;1139;-69
2022/04/12 01:15:36;;;;;;;1147.18;999.90;;;;;;;6.30;53.04;101415.34;686831;28;1643;-67
2022/04/12 01:15:58;;;;;;;1162.10;999.90;;;;;;;6.31;52.83;101417.88;686984;28;1878;-67
2022/04/12 01:16:19;;;;;;;1154.68;999.90;;;;;;;6.32;52.67;101419.59;685017;28;45583;-68
2022/04/12 01:16:41;;;;;;;1157.43;999.90;;;;;;;6.30;52.65;101415.34;684536;28;23161;-68
2022/04/12 01:17:04;;;;;;;1157.63;999.90;;;;;;;6.30;52.45;101423.38;685543;28;23473;-67
2022/04/12 01:17:26;;;;;;;1155.07;999.90;;;;;;;6.31;52.44;101422.41;682588;28;92139;-69
2022/04/12 01:17:48;;;;;;;1151.65;999.90;;;;;;;6.29;52.55;101414.50;684778;28;44362;-68
2022/04/12 01:18:11;;;;;;;1150.15;999.90;;;;;;;6.28;52.54;101418.16;685523;28;22175;-69
2022/04/12 01:18:34;;;;;;;1158.07;999.90;;;;;;;6.28;52.59;101412.78;682974;28;92005;-68
2022/04/12 01:18:55;;;;;;;1151.80;999.90;;;;;;;6.29;52.62;101416.34;684056;28;68285;-68
2022/04/12 01:19:18;;;;;;;1158.00;999.90;;;;;;;6.27;52.69;101420.97;685366;28;23512;-68
2022/04/12 01:19:39;;;;;;;1157.47;999.90;;;;;;;6.25;52.61;101414.91;684039;28;45341;-68
2022/04/12 01:20:00;;;;;;;1156.45;999.90;;;;;;;6.26;52.64;101416.59;684795;28;23476;-68
2022/04/12 01:20:24;;;;;;;1159.03;999.90;;;;;;;6.25;52.62;101417.56;683855;28;22445;-69
2022/04/12 01:20:46;;;;;;;1150.57;999.90;;;;;;;6.24;52.72;101422.09;682469;28;115140;-68
2022/04/12 01:21:07;;;;;;;1152.20;999.90;;;;;;;6.24;52.66;101418.56;684344;28;46250;-68
2022/04/12 01:21:31;;;;;;;1146.63;999.90;;;;;;;6.21;52.69;101410.78;681955;28;23604;-68
2022/04/12 01:21:54;;;;;;;1160.32;999.90;;;;;;;6.20;52.75;101417.97;678950;28;92269;-69
2022/04/12 01:22:22;;;;;;;1152.85;999.90;;;;;;;6.21;52.75;101424.22;680185;28;69465;-68
2022/04/12 01:22:56;;;;;;;1155.07;999.90;;;;;;;6.22;52.72;101421.41;679192;28;136129;-68
2022/04/12 01:23:22;;;;;;;1154.18;999.90;;;;;;;6.19;52.92;101418.09;682698;28;58893;-68
2022/04/12 01:23:54;;;;;;;1154.68;999.90;;;;;;;6.23;52.96;101414.19;684579;28;89088;-67
2022/04/12 01:24:17;;;;;;;1148.90;999.90;;;;;;;6.24;52.73;101419.41;685207;28;57402;-68
2022/04/12 01:24:40;;;;;;;1150.43;999.90;;;;;;;6.24;52.81;101418.56;684409;28;68401;-68
2022/04/12 01:25:01;;;;;;;1155.45;999.90;;;;;;;6.23;52.94;101424.91;683601;28;69419;-67
2022/04/12 01:25:22;;;;;;;1160.68;999.90;;;;;;;6.22;53.01;101424.06;684542;28;22449;-67
2022/04/12 01:25:44;;;;;;;1160.38;999.90;;;;;;;6.23;52.97;101419.56;685517;28;21517;-67
2022/04/12 01:26:06;;;;;;;1159.13;999.90;;;;;;;6.23;53.10;101422.22;686153;28;7716;-67
2022/04/12 01:26:28;;;;;;;1152.47;999.90;;;;;;;6.22;53.12;101417.84;686051;28;1433;-67
2022/04/12 01:26:49;;;;;;;1154.28;999.90;;;;;;;6.18;53.14;101413.75;683729;28;45078;-67
2022/04/12 01:27:10;;;;;;;1147.60;999.90;;;;;;;6.19;53.18;101423.47;685564;28;21594;-68
2022/04/12 01:27:31;;;;;;;1161.70;999.90;;;;;;;6.19;53.30;101421.66;685074;28;22205;-69
2022/04/12 01:27:54;;;;;;;1157.68;999.90;;;;;;;6.19;53.16;101423.47;685967;28;22490;-68
2022/04/12 01:28:15;;;;;;;1157.25;999.90;;;;;;;6.19;53.31;101423.47;683735;28;70368;-68
2022/04/12 01:28:36;;;;;;;1161.95;999.90;;;;;;;6.20;53.26;101425.19;685545;28;22204;-68
2022/04/12 01:28:57;;;;;;;1156.15;999.90;;;;;;;6.20;53.19;101425.19;685442;28;23324;-68
2022/04/12 01:29:19;;;;;;;1156.13;999.90;;;;;;;6.17;53.07;101420.91;685317;28;22240;-68
2022/04/12 01:29:40;;;;;;;1156.15;999.90;;;;;;;6.15;53.28;101420.22;684096;28;45484;-68
2022/04/12 01:30:01;;;;;;;1152.60;999.90;;;;;;;6.14;53.11;101426.53;685255;28;24310;-68
2022/04/12 01:30:23;;;;;;;1153.60;999.90;;;;;;;6.15;53.17;101427.41;685019;28;22363;-68
2022/04/12 01:30:44;;;;;;;1154.72;999.90;;;;;;;6.14;53.33;101423.84;684675;28;44260;-68
2022/04/12 01:31:05;;;;;;;1161.30;999.90;;;;;;;6.14;53.31;101426.53;684258;28;22575;-68
2022/04/12 01:31:27;;;;;;;1156.20;999.90;;;;;;;6.10;53.36;101420.59;685455;28;46139;-68
2022/04/12 01:31:49;;;;;;;1155.53;999.90;;;;;;;6.12;53.38;101426.66;684572;28;23505;-67
2022/04/12 01:32:10;;;;;;;1160.15;999.90;;;;;;;6.12;53.27;101425.84;684885;28;44431;-66
2022/04/12 01:32:31;;;;;;;1156.13;999.90;;;;;;;6.11;53.26;101425.00;685067;28;24336;-68
2022/04/12 01:32:52;;;;;;;1154.35;999.90;;;;;;;6.11;53.35;101425.00;684888;28;23434;-67
2022/04/12 01:33:14;;;;;;;1158.82;999.90;;;;;;;6.11;53.50;101426.81;685639;28;1616;-68
2022/04/12 01:33:35;;;;;;;1157.53;999.90;;;;;;;6.10;53.49;101423.28;683759;28;46119;-68
2022/04/12 01:33:57;;;;;;;1158.30;999.90;;;;;;;6.11;53.40;101429.47;686071;28;23471;-68
2022/04/12 01:34:20;;;;;;;1156.97;999.90;;;;;;;6.07;53.69;101420.03;685006;28;23448;-67
2022/04/12 01:34:42;;;;;;;1160.40;999.90;;;;;;;6.07;53.57;101426.22;682794;28;92303;-67
2022/04/12 01:35:04;;;;;;;1157.72;999.90;;;;;;;6.06;53.63;101426.34;684664;28;46369;-67
2022/04/12 01:35:25;;;;;;;1153.47;999.90;;;;;;;6.03;53.81;101424.78;684149;28;45366;-67
2022/04/12 01:35:46;;;;;;;1153.10;999.90;;;;;;;6.03;53.77;101430.13;685176;28;21436;-68
2022/04/12 01:36:07;;;;;;;1150.15;999.90;;;;;;;6.00;53.79;101425.03;684925;28;23907;-67
2022/04/12 01:36:29;;;;;;;1161.38;999.90;;;;;;;5.96;53.95;101428.94;685368;28;23503;-68
2022/04/12 01:36:50;;;;;;;1152.90;999.90;;;;;;;5.93;54.09;101423.84;684489;28;44382;-68
2022/04/12 01:37:12;;;;;;;1156.40;999.90;;;;;;;5.90;54.28;101424.09;685556;28;23382;-68
2022/04/12 01:37:33;;;;;;;1156.65;999.90;;;;;;;5.87;54.14;101425.19;684529;28;23399;-68
2022/04/12 01:37:55;;;;;;;1156.40;999.90;;;;;;;5.86;54.21;101425.31;684579;28;23497;-68
2022/04/12 01:38:16;;;;;;;1155.75;999.90;;;;;;;5.82;54.19;101421.22;682933;28;45260;-68
2022/04/12 01:38:37;;;;;;;1162.15;999.90;;;;;;;5.78;54.32;101418.81;685653;28;22399;-68
2022/04/12 01:38:59;;;;;;;1156.53;999.90;;;;;;;5.77;54.25;101430.50;685420;28;22421;-68
2022/04/12 01:39:21;;;;;;;1161.87;999.90;;;;;;;5.74;54.51;101424.53;683799;28;68457;-68
2022/04/12 01:39:42;;;;;;;1173.70;999.90;;;;;;;5.72;54.47;101424.66;683884;28;67516;-68
2022/04/12 01:40:05;;;;;;;1156.95;999.90;;;;;;;5.67;54.45;101420.66;684592;28;22176;-68
2022/04/12 01:40:26;;;;;;;1157.28;999.90;;;;;;;5.65;54.39;101420.78;682853;28;1018;-68